KOFK/OFK METAR and TAF weather

Enter ICAO airport designator
Station Type Date Time Source
KOFK METAR 2019/08/22 19:56 UTC NOAA

KOFK 221956Z AUTO 13011KT 10SM CLR 24/17 A3001 RMK AO2 SLP155 T02390172


Station Type Date Time Source
KOFK Decoded METAR 2019/08/22 19:56 UTC NOAA

Station name not available
Aug 22, 2019 - 03:56 PM EDT / 2019.08.22 1956 UTC
Wind: from the SE (130 degrees) at 13 MPH (11 KT):0
Visibility: 10 mile(s):0
Sky conditions: clear
Temperature: 75.0 F (23.9 C)
Dew Point: 63.0 F (17.2 C)
Relative Humidity: 66%
Pressure (altimeter): 30.01 in. Hg (1016 hPa)
ob: KOFK 221956Z AUTO 13011KT 10SM CLR 24/17 A3001 RMK AO2 SLP155 T02390172
cycle: 20

Station Type Date Time Source
KOFK TAF 2019/08/22 18:22 UTC NOAA

TAF KOFK 221720Z 2218/2318 12005KT P6SM SCT015 BKN150
FM230800 13005KT P6SM SCT025
TEMPO 2309/2313 BKN015
FM231600 14009KT P6SM FEW045
FM231700 14009KT P6SM SCT060

Example: see airport list